KMLF

Milford Municipal/Ben And Judy Briscoe Field Airport

Milford, Utah, USA
METAR KMLF 161352Z AUTO 29004KT 10SM CLR 00/M15 A2980 RMK AO2 SLP098 T00001150
Observed Flight Rules
Dec-16 @ 13:52 UTC (46 minutes ago) Visual Flight Rules
Wind Visibility Clouds
290° at 4 knots 10 miles
  • Clear skies
Temperatures Readings
Current 0°C / 32°F
Dewpoint -15°C / 5°F
Humidity 32%
Altimeter 29.8" Hg
Pressure 1009.8 hPa
Elevation 1534
METAR KMLF 161352Z AUTO 29004KT 10SM CLR 00/M15 A2980 RMK AO2 SLP098 T00001150
Observed Flight Rules
Dec-16 @ 13:52 UTC
(46 minutes ago)
VFR
Wind Visibility
290° at 4 knots 10 miles
Clouds
  • Clear skies
Temperature Dewpoint
0°C / 32°F -15°C / 5°F
Humidity Altimeter Pressure
32% 29.8" Hg 1009.8 hPa